createdAt,value
2018-12-22T00:14:42.678Z,97646.50
2018-12-22T00:35:22.162Z,97646.30
2018-12-22T00:56:01.215Z,97643.05
2018-12-22T01:16:41.613Z,97652.70
2018-12-22T01:37:17.700Z,97654.56
2018-12-22T02:15:55.047Z,97657.27
2018-12-22T02:36:33.911Z,97662.48
2018-12-22T02:57:13.584Z,97651.80
2018-12-22T03:17:48.758Z,97663.49
2018-12-22T03:38:28.082Z,97631.52
2018-12-22T04:17:09.059Z,97651.05
2018-12-22T04:37:48.940Z,97630.70
2018-12-22T04:58:27.590Z,97647.36
2018-12-22T05:19:07.885Z,97664.09
2018-12-22T05:39:46.121Z,97700.21
2018-12-22T06:18:26.954Z,97761.20
2018-12-22T06:39:05.402Z,97795.80
2018-12-22T06:59:44.676Z,97802.77
2018-12-22T07:20:22.908Z,97843.56
2018-12-22T07:41:04.018Z,97903.95
2018-12-22T08:19:42.172Z,97953.89
2018-12-22T09:01:09.525Z,98050.82
2018-12-22T09:21:52.697Z,98098.18
2018-12-22T10:00:31.060Z,98148.29
2018-12-22T10:42:03.516Z,98194.81
2018-12-22T11:02:46.138Z,98191.67
2018-12-22T11:41:26.688Z,98211.74
2018-12-22T12:02:09.682Z,98230.73
2018-12-22T12:22:46.448Z,98254.02
2018-12-22T12:43:28.789Z,98268.13
2018-12-22T13:04:08.153Z,98279.69
2018-12-22T13:42:51.959Z,98312.12
2018-12-22T14:03:40.440Z,98320.59
2018-12-22T14:24:30.561Z,98354.99
2018-12-22T14:45:15.231Z,98356.17
2018-12-22T15:05:53.190Z,98378.38
2018-12-22T15:44:34.483Z,98426.43
2018-12-22T16:05:16.359Z,98451.96
2018-12-22T16:25:55.010Z,98442.09
2018-12-22T16:46:36.120Z,98481.17
2018-12-22T17:07:15.591Z,98477.31
2018-12-22T17:45:57.245Z,98513.05
2018-12-22T18:06:37.533Z,98552.03
2018-12-22T18:27:15.780Z,98555.80
2018-12-22T18:47:56.076Z,98579.11
2018-12-22T19:08:35.539Z,98590.52
2018-12-22T19:47:18.422Z,98651.11
2018-12-22T20:07:57.891Z,98652.20
2018-12-22T20:28:37.232Z,98678.97
2018-12-22T20:49:17.243Z,98666.47
2018-12-22T21:09:58.798Z,98695.17
2018-12-22T21:48:40.414Z,98721.59
2018-12-22T22:09:19.342Z,98740.19
2018-12-22T22:48:13.840Z,98779.31
2018-12-22T23:08:56.165Z,98784.84
2018-12-22T23:29:37.685Z,98814.20
2018-12-22T23:50:18.040Z,98815.82
